sensor_id;sensor_type;location;lat;lon;timestamp;pressure;altitude;pressure_sealevel;temperature;humidity
55466;BME280;41329;41.594;23.810;2022-07-18T00:00:00;95743.06;;;20.75;55.19
55466;BME280;41329;41.594;23.810;2022-07-18T00:02:26;95747.97;;;20.71;55.24
55466;BME280;41329;41.594;23.810;2022-07-18T00:04:52;95750.72;;;20.75;55.73
55466;BME280;41329;41.594;23.810;2022-07-18T00:07:17;95729.19;;;20.65;56.05
55466;BME280;41329;41.594;23.810;2022-07-18T00:09:43;95740.34;;;20.72;55.81
55466;BME280;41329;41.594;23.810;2022-07-18T00:12:10;95741.50;;;20.74;55.94
55466;BME280;41329;41.594;23.810;2022-07-18T00:14:36;95723.81;;;20.51;55.91
55466;BME280;41329;41.594;23.810;2022-07-18T00:17:03;95741.25;;;20.65;55.83
55466;BME280;41329;41.594;23.810;2022-07-18T00:19:29;95741.66;;;20.64;55.75
55466;BME280;41329;41.594;23.810;2022-07-18T00:21:54;95744.09;;;20.62;55.83
55466;BME280;41329;41.594;23.810;2022-07-18T00:24:20;95749.38;;;20.33;56.82
55466;BME280;41329;41.594;23.810;2022-07-18T00:26:46;95750.06;;;20.14;57.08
55466;BME280;41329;41.594;23.810;2022-07-18T00:29:11;95760.84;;;20.19;57.11
55466;BME280;41329;41.594;23.810;2022-07-18T00:31:37;95729.88;;;19.93;57.53
55466;BME280;41329;41.594;23.810;2022-07-18T00:34:03;95744.34;;;19.91;57.87
55466;BME280;41329;41.594;23.810;2022-07-18T00:36:30;95755.97;;;19.93;58.08
55466;BME280;41329;41.594;23.810;2022-07-18T00:38:56;95759.31;;;19.81;58.37
55466;BME280;41329;41.594;23.810;2022-07-18T00:41:22;95750.50;;;19.79;58.61
55466;BME280;41329;41.594;23.810;2022-07-18T00:43:48;95762.44;;;19.87;59.11
55466;BME280;41329;41.594;23.810;2022-07-18T00:46:14;95755.34;;;19.79;59.49
55466;BME280;41329;41.594;23.810;2022-07-18T00:48:40;95760.03;;;19.89;59.28
55466;BME280;41329;41.594;23.810;2022-07-18T00:51:07;95762.78;;;19.92;59.25
55466;BME280;41329;41.594;23.810;2022-07-18T00:53:32;95722.97;;;19.67;59.09
55466;BME280;41329;41.594;23.810;2022-07-18T00:55:59;95757.97;;;19.93;58.81
55466;BME280;41329;41.594;23.810;2022-07-18T00:58:27;95768.38;;;19.96;58.72
55466;BME280;41329;41.594;23.810;2022-07-18T01:00:52;95765.91;;;19.98;58.07
55466;BME280;41329;41.594;23.810;2022-07-18T01:03:36;95757.53;;;19.94;58.04
55466;BME280;41329;41.594;23.810;2022-07-18T01:06:02;95763.94;;;19.95;58.30
55466;BME280;41329;41.594;23.810;2022-07-18T01:08:27;95767.50;;;19.99;58.33
55466;BME280;41329;41.594;23.810;2022-07-18T01:10:53;95750.00;;;19.88;58.08
55466;BME280;41329;41.594;23.810;2022-07-18T01:13:19;95762.81;;;19.89;57.95
55466;BME280;41329;41.594;23.810;2022-07-18T01:15:45;95730.66;;;19.63;58.41
55466;BME280;41329;41.594;23.810;2022-07-18T01:18:11;95759.75;;;19.80;58.35
55466;BME280;41329;41.594;23.810;2022-07-18T01:20:37;95765.84;;;19.71;58.28
55466;BME280;41329;41.594;23.810;2022-07-18T01:23:03;95772.31;;;19.68;58.32
55466;BME280;41329;41.594;23.810;2022-07-18T01:25:29;95769.88;;;19.70;58.56
55466;BME280;41329;41.594;23.810;2022-07-18T01:27:55;95767.91;;;19.67;58.84
55466;BME280;41329;41.594;23.810;2022-07-18T01:30:22;95761.94;;;19.65;59.08
55466;BME280;41329;41.594;23.810;2022-07-18T01:32:57;95771.47;;;19.71;59.02
55466;BME280;41329;41.594;23.810;2022-07-18T01:35:24;95774.66;;;19.73;59.08
55466;BME280;41329;41.594;23.810;2022-07-18T01:37:54;95775.09;;;19.72;58.90
55466;BME280;41329;41.594;23.810;2022-07-18T01:40:21;95778.72;;;19.69;58.30
55466;BME280;41329;41.594;23.810;2022-07-18T01:42:47;95770.44;;;19.58;58.15
55466;BME280;41329;41.594;23.810;2022-07-18T01:45:13;95770.97;;;19.46;58.13
55466;BME280;41329;41.594;23.810;2022-07-18T01:47:39;95772.69;;;19.37;57.97
55466;BME280;41329;41.594;23.810;2022-07-18T01:50:05;95769.09;;;19.36;58.25
55466;BME280;41329;41.594;23.810;2022-07-18T01:52:31;95769.88;;;19.37;58.59
55466;BME280;41329;41.594;23.810;2022-07-18T01:54:56;95775.88;;;19.39;58.64
55466;BME280;41329;41.594;23.810;2022-07-18T01:57:22;95774.66;;;19.40;58.54
55466;BME280;41329;41.594;23.810;2022-07-18T01:59:47;95767.91;;;19.34;58.98
55466;BME280;41329;41.594;23.810;2022-07-18T02:02:12;95775.88;;;19.39;58.84
55466;BME280;41329;41.594;23.810;2022-07-18T02:04:38;95774.69;;;19.36;58.40
55466;BME280;41329;41.594;23.810;2022-07-18T02:07:22;95770.31;;;19.32;58.76
55466;BME280;41329;41.594;23.810;2022-07-18T02:09:48;95780.38;;;19.29;59.40
55466;BME280;41329;41.594;23.810;2022-07-18T02:12:14;95769.22;;;19.22;59.63
55466;BME280;41329;41.594;23.810;2022-07-18T02:14:39;95768.03;;;19.20;59.60
55466;BME280;41329;41.594;23.810;2022-07-18T02:17:05;95796.50;;;19.18;59.67
55466;BME280;41329;41.594;23.810;2022-07-18T02:19:30;95783.34;;;19.12;58.89
55466;BME280;41329;41.594;23.810;2022-07-18T02:21:56;95775.72;;;19.12;59.51
55466;BME280;41329;41.594;23.810;2022-07-18T02:24:21;95796.88;;;19.20;59.78
55466;BME280;41329;41.594;23.810;2022-07-18T02:26:47;95785.34;;;19.11;59.61
55466;BME280;41329;41.594;23.810;2022-07-18T02:29:12;95775.81;;;19.02;60.04
55466;BME280;41329;41.594;23.810;2022-07-18T02:31:38;95803.34;;;19.14;59.68
55466;BME280;41329;41.594;23.810;2022-07-18T02:34:03;95780.75;;;18.91;59.76
55466;BME280;41329;41.594;23.810;2022-07-18T02:36:39;95803.09;;;18.98;60.55
55466;BME280;41329;41.594;23.810;2022-07-18T02:39:05;95795.63;;;18.84;60.70
55466;BME280;41329;41.594;23.810;2022-07-18T02:41:31;95800.38;;;18.91;60.77
55466;BME280;41329;41.594;23.810;2022-07-18T02:43:57;95759.75;;;18.62;60.81
55466;BME280;41329;41.594;23.810;2022-07-18T02:46:23;95796.81;;;18.87;60.82
55466;BME280;41329;41.594;23.810;2022-07-18T02:48:49;95788.78;;;18.85;60.44
55466;BME280;41329;41.594;23.810;2022-07-18T02:51:14;95805.53;;;18.92;60.44
55466;BME280;41329;41.594;23.810;2022-07-18T02:53:40;95811.97;;;18.93;60.24
55466;BME280;41329;41.594;23.810;2022-07-18T02:56:06;95816.53;;;18.73;60.88
55466;BME280;41329;41.594;23.810;2022-07-18T02:58:31;95798.16;;;18.68;60.67
55466;BME280;41329;41.594;23.810;2022-07-18T03:00:58;95814.13;;;18.75;61.17
55466;BME280;41329;41.594;23.810;2022-07-18T03:03:23;95820.09;;;18.80;61.13
55466;BME280;41329;41.594;23.810;2022-07-18T03:05:49;95810.06;;;18.79;61.57
55466;BME280;41329;41.594;23.810;2022-07-18T03:08:14;95769.84;;;18.52;62.12
55466;BME280;41329;41.594;23.810;2022-07-18T03:10:40;95815.66;;;18.83;61.94
55466;BME280;41329;41.594;23.810;2022-07-18T03:13:05;95822.03;;;18.87;61.75
55466;BME280;41329;41.594;23.810;2022-07-18T03:15:31;95806.47;;;18.75;61.56
55466;BME280;41329;41.594;23.810;2022-07-18T03:17:56;95817.66;;;18.82;61.47
55466;BME280;41329;41.594;23.810;2022-07-18T03:20:22;95823.59;;;18.91;61.80
55466;BME280;41329;41.594;23.810;2022-07-18T03:22:47;95822.41;;;18.89;62.01
55466;BME280;41329;41.594;23.810;2022-07-18T03:25:13;95823.75;;;18.74;61.92
55466;BME280;41329;41.594;23.810;2022-07-18T03:27:39;95822.72;;;18.47;60.73
55466;BME280;41329;41.594;23.810;2022-07-18T03:30:05;95837.06;;;18.56;60.80
55466;BME280;41329;41.594;23.810;2022-07-18T03:32:30;95835.44;;;18.58;60.62
55466;BME280;41329;41.594;23.810;2022-07-18T03:34:56;95825.16;;;18.45;60.46
55466;BME280;41329;41.594;23.810;2022-07-18T03:37:21;95829.56;;;18.39;60.51
55466;BME280;41329;41.594;23.810;2022-07-18T03:39:47;95846.78;;;18.41;60.54
55466;BME280;41329;41.594;23.810;2022-07-18T03:42:12;95848.41;;;18.35;61.04
55466;BME280;41329;41.594;23.810;2022-07-18T03:44:37;95854.03;;;18.28;61.54
55466;BME280;41329;41.594;23.810;2022-07-18T03:47:03;95833.31;;;18.15;62.10
55466;BME280;41329;41.594;23.810;2022-07-18T03:49:28;95861.66;;;18.24;62.94
55466;BME280;41329;41.594;23.810;2022-07-18T03:51:54;95862.84;;;18.23;62.99
55466;BME280;41329;41.594;23.810;2022-07-18T03:54:22;95857.72;;;18.11;62.72
55466;BME280;41329;41.594;23.810;2022-07-18T03:56:49;95845.78;;;18.00;63.07
55466;BME280;41329;41.594;23.810;2022-07-18T03:59:14;95855.75;;;18.08;63.87
55466;BME280;41329;41.594;23.810;2022-07-18T04:01:41;95825.41;;;17.88;63.77
55466;BME280;41329;41.594;23.810;2022-07-18T04:04:07;95850.97;;;17.98;64.05
55466;BME280;41329;41.594;23.810;2022-07-18T04:06:32;95874.22;;;17.88;64.14
55466;BME280;41329;41.594;23.810;2022-07-18T04:08:58;95876.25;;;17.80;63.55
55466;BME280;41329;41.594;23.810;2022-07-18T04:11:23;95865.81;;;17.80;63.45
55466;BME280;41329;41.594;23.810;2022-07-18T04:13:53;95873.00;;;17.88;64.13
55466;BME280;41329;41.594;23.810;2022-07-18T04:16:20;95878.16;;;18.01;64.22
55466;BME280;41329;41.594;23.810;2022-07-18T04:18:46;95840.22;;;17.82;64.01
55466;BME280;41329;41.594;23.810;2022-07-18T04:21:11;95877.28;;;18.18;63.93
55466;BME280;41329;41.594;23.810;2022-07-18T04:23:38;95878.06;;;18.22;63.98
55466;BME280;41329;41.594;23.810;2022-07-18T04:26:03;95878.47;;;18.20;64.56
55466;BME280;41329;41.594;23.810;2022-07-18T04:28:29;95880.09;;;18.21;64.65
55466;BME280;41329;41.594;23.810;2022-07-18T04:30:55;95878.88;;;18.22;64.47
55466;BME280;41329;41.594;23.810;2022-07-18T04:33:20;95875.69;;;18.17;64.37
55466;BME280;41329;41.594;23.810;2022-07-18T04:35:47;95878.88;;;18.22;64.20
55466;BME280;41329;41.594;23.810;2022-07-18T04:38:13;95878.06;;;18.25;64.10
55466;BME280;41329;41.594;23.810;2022-07-18T04:40:38;95886.00;;;18.37;64.33
55466;BME280;41329;41.594;23.810;2022-07-18T04:43:04;95857.66;;;18.25;64.06
55466;BME280;41329;41.594;23.810;2022-07-18T04:45:30;95864.78;;;18.40;64.21
55466;BME280;41329;41.594;23.810;2022-07-18T04:47:56;95857.56;;;18.46;64.29
55466;BME280;41329;41.594;23.810;2022-07-18T04:50:21;95876.63;;;18.65;64.38
55466;BME280;41329;41.594;23.810;2022-07-18T04:52:48;95861.06;;;18.60;64.03
55466;BME280;41329;41.594;23.810;2022-07-18T04:55:14;95875.38;;;18.76;64.29
55466;BME280;41329;41.594;23.810;2022-07-18T04:57:40;95876.94;;;18.84;64.73
55466;BME280;41329;41.594;23.810;2022-07-18T05:00:10;95870.88;;;18.89;64.71
55466;BME280;41329;41.594;23.810;2022-07-18T05:02:41;95870.41;;;18.98;64.63
55466;BME280;41329;41.594;23.810;2022-07-18T05:05:08;95869.94;;;19.06;64.64
55466;BME280;41329;41.594;23.810;2022-07-18T05:07:36;95869.53;;;19.04;64.52
55466;BME280;41329;41.594;23.810;2022-07-18T05:10:02;95871.97;;;19.02;65.01
55466;BME280;41329;41.594;23.810;2022-07-18T05:12:32;95874.72;;;19.09;64.72
55466;BME280;41329;41.594;23.810;2022-07-18T05:14:58;95882.38;;;19.05;65.03
55466;BME280;41329;41.594;23.810;2022-07-18T05:17:23;95876.28;;;19.14;65.21
55466;BME280;41329;41.594;23.810;2022-07-18T05:19:49;95877.41;;;19.27;64.95
55466;BME280;41329;41.594;23.810;2022-07-18T05:22:14;95884.53;;;19.35;64.84
55466;BME280;41329;41.594;23.810;2022-07-18T05:24:39;95830.22;;;19.11;64.67
55466;BME280;41329;41.594;23.810;2022-07-18T05:27:05;95887.59;;;19.51;64.29
55466;BME280;41329;41.594;23.810;2022-07-18T05:29:30;95883.94;;;19.57;63.64
55466;BME280;41329;41.594;23.810;2022-07-18T05:31:56;95878.31;;;19.57;63.33
55466;BME280;41329;41.594;23.810;2022-07-18T05:34:21;95895.09;;;19.64;62.61
55466;BME280;41329;41.594;23.810;2022-07-18T05:36:47;95880.66;;;19.62;62.10
55466;BME280;41329;41.594;23.810;2022-07-18T05:39:12;95887.44;;;19.68;60.66
55466;BME280;41329;41.594;23.810;2022-07-18T05:41:38;95892.09;;;19.82;61.12
55466;BME280;41329;41.594;23.810;2022-07-18T05:44:04;95890.53;;;19.77;59.67
55466;BME280;41329;41.594;23.810;2022-07-18T05:46:29;95883.44;;;19.66;60.15
55466;BME280;41329;41.594;23.810;2022-07-18T05:48:55;95891.22;;;19.88;60.37
55466;BME280;41329;41.594;23.810;2022-07-18T05:51:20;95883.06;;;19.97;60.85
55466;BME280;41329;41.594;23.810;2022-07-18T05:53:47;95889.75;;;20.14;59.99
55466;BME280;41329;41.594;23.810;2022-07-18T05:56:12;95888.34;;;20.29;59.64
55466;BME280;41329;41.594;23.810;2022-07-18T05:58:38;95880.59;;;20.40;59.13
55466;BME280;41329;41.594;23.810;2022-07-18T06:01:03;95867.34;;;20.40;58.12
55466;BME280;41329;41.594;23.810;2022-07-18T06:03:29;95884.31;;;20.60;57.98
55466;BME280;41329;41.594;23.810;2022-07-18T06:05:54;95875.06;;;20.63;57.44
55466;BME280;41329;41.594;23.810;2022-07-18T06:08:20;95883.84;;;20.65;59.77
55466;BME280;41329;41.594;23.810;2022-07-18T06:10:45;95890.97;;;20.73;59.59
55466;BME280;41329;41.594;23.810;2022-07-18T06:13:10;95874.59;;;20.64;58.96
55466;BME280;41329;41.594;23.810;2022-07-18T06:15:36;95879.56;;;20.83;58.59
55466;BME280;41329;41.594;23.810;2022-07-18T06:18:01;95877.16;;;20.82;58.17
55466;BME280;41329;41.594;23.810;2022-07-18T06:20:27;95883.53;;;20.86;57.64
55466;BME280;41329;41.594;23.810;2022-07-18T06:22:52;95865.56;;;20.80;58.51
55466;BME280;41329;41.594;23.810;2022-07-18T06:25:18;95881.72;;;21.02;58.73
55466;BME280;41329;41.594;23.810;2022-07-18T06:27:43;95875.00;;;21.19;58.72
55466;BME280;41329;41.594;23.810;2022-07-18T06:30:09;95876.53;;;21.24;57.28
55466;BME280;41329;41.594;23.810;2022-07-18T06:32:35;95877.66;;;21.30;56.69
55466;BME280;41329;41.594;23.810;2022-07-18T06:35:01;95870.00;;;21.30;56.46
55466;BME280;41329;41.594;23.810;2022-07-18T06:37:26;95867.47;;;21.36;56.74
55466;BME280;41329;41.594;23.810;2022-07-18T06:39:52;95848.88;;;21.19;56.09
55466;BME280;41329;41.594;23.810;2022-07-18T06:42:17;95862.88;;;21.22;55.81
55466;BME280;41329;41.594;23.810;2022-07-18T06:44:43;95861.03;;;21.35;55.84
55466;BME280;41329;41.594;23.810;2022-07-18T06:47:08;95864.78;;;21.52;55.34
55466;BME280;41329;41.594;23.810;2022-07-18T06:49:34;95853.09;;;21.53;55.00
55466;BME280;41329;41.594;23.810;2022-07-18T06:51:59;95846.13;;;21.61;55.00
55466;BME280;41329;41.594;23.810;2022-07-18T06:54:25;95840.50;;;21.61;55.54
55466;BME280;41329;41.594;23.810;2022-07-18T06:56:54;95837.94;;;21.67;53.93
55466;BME280;41329;41.594;23.810;2022-07-18T06:59:20;95850.94;;;21.61;53.30
55466;BME280;41329;41.594;23.810;2022-07-18T07:01:45;95842.41;;;21.64;53.82
55466;BME280;41329;41.594;23.810;2022-07-18T07:04:11;95850.19;;;21.80;53.49
55466;BME280;41329;41.594;23.810;2022-07-18T07:06:36;95839.91;;;21.93;53.14
55466;BME280;41329;41.594;23.810;2022-07-18T07:09:04;95858.09;;;22.08;52.83
55466;BME280;41329;41.594;23.810;2022-07-18T07:11:30;95844.44;;;21.87;51.25
55466;BME280;41329;41.594;23.810;2022-07-18T07:13:56;95845.28;;;21.84;51.37
55466;BME280;41329;41.594;23.810;2022-07-18T07:16:21;95842.13;;;22.01;51.84
55466;BME280;41329;41.594;23.810;2022-07-18T07:18:47;95850.53;;;22.24;51.49
55466;BME280;41329;41.594;23.810;2022-07-18T07:21:12;95843.22;;;22.27;50.28
55466;BME280;41329;41.594;23.810;2022-07-18T07:23:38;95842.91;;;22.41;50.24
55466;BME280;41329;41.594;23.810;2022-07-18T07:26:03;95828.72;;;22.44;48.05
55466;BME280;41329;41.594;23.810;2022-07-18T07:28:29;95844.56;;;22.58;47.31
55466;BME280;41329;41.594;23.810;2022-07-18T07:30:55;95840.22;;;22.73;47.96
55466;BME280;41329;41.594;23.810;2022-07-18T07:33:20;95842.50;;;22.78;46.79
55466;BME280;41329;41.594;23.810;2022-07-18T07:35:46;95845.25;;;22.81;47.48
55466;BME280;41329;41.594;23.810;2022-07-18T07:38:11;95838.28;;;22.86;44.71
55466;BME280;41329;41.594;23.810;2022-07-18T07:40:43;95835.75;;;22.92;44.13
55466;BME280;41329;41.594;23.810;2022-07-18T07:43:12;95817.56;;;22.92;47.31
55466;BME280;41329;41.594;23.810;2022-07-18T07:45:38;95832.91;;;23.08;46.84
55466;BME280;41329;41.594;23.810;2022-07-18T07:48:04;95809.22;;;23.21;45.29
55466;BME280;41329;41.594;23.810;2022-07-18T07:50:30;95820.84;;;23.39;44.23
55466;BME280;41329;41.594;23.810;2022-07-18T07:52:56;95823.59;;;23.59;45.76
55466;BME280;41329;41.594;23.810;2022-07-18T07:55:22;95806.38;;;23.53;43.42
55466;BME280;41329;41.594;23.810;2022-07-18T07:57:48;95819.72;;;23.81;42.79
55466;BME280;41329;41.594;23.810;2022-07-18T08:00:13;95794.97;;;23.57;42.27
55466;BME280;41329;41.594;23.810;2022-07-18T08:03:00;95812.06;;;23.66;41.89
55466;BME280;41329;41.594;23.810;2022-07-18T08:05:31;95813.88;;;23.88;41.16
55466;BME280;41329;41.594;23.810;2022-07-18T08:07:58;95808.59;;;23.90;40.15
55466;BME280;41329;41.594;23.810;2022-07-18T08:10:24;95803.88;;;24.00;41.34
55466;BME280;41329;41.594;23.810;2022-07-18T08:12:50;95791.78;;;23.99;40.21
55466;BME280;41329;41.594;23.810;2022-07-18T08:15:16;95806.91;;;24.34;41.56
55466;BME280;41329;41.594;23.810;2022-07-18T08:17:41;95798.25;;;24.53;39.22
55466;BME280;41329;41.594;23.810;2022-07-18T08:20:08;95802.13;;;24.72;39.36
55466;BME280;41329;41.594;23.810;2022-07-18T08:22:34;95797.41;;;24.69;38.30
55466;BME280;41329;41.594;23.810;2022-07-18T08:25:00;95782.13;;;24.66;39.06
55466;BME280;41329;41.594;23.810;2022-07-18T08:27:26;95785.16;;;24.84;39.18
55466;BME280;41329;41.594;23.810;2022-07-18T08:29:51;95797.25;;;25.22;40.78
55466;BME280;41329;41.594;23.810;2022-07-18T08:32:17;95797.47;;;25.40;35.96
55466;BME280;41329;41.594;23.810;2022-07-18T08:34:43;95789.78;;;25.41;36.58
55466;BME280;41329;41.594;23.810;2022-07-18T08:37:08;95788.81;;;25.56;37.94
55466;BME280;41329;41.594;23.810;2022-07-18T08:39:33;95795.75;;;25.77;38.06
55466;BME280;41329;41.594;23.810;2022-07-18T08:42:00;95791.56;;;25.94;36.43
55466;BME280;41329;41.594;23.810;2022-07-18T08:44:28;95783.13;;;25.90;37.02
55466;BME280;41329;41.594;23.810;2022-07-18T08:46:56;95786.53;;;25.98;37.95
55466;BME280;41329;41.594;23.810;2022-07-18T08:49:22;95782.13;;;26.18;35.11
55466;BME280;41329;41.594;23.810;2022-07-18T08:51:48;95793.06;;;26.29;33.52
55466;BME280;41329;41.594;23.810;2022-07-18T08:54:15;95795.25;;;26.25;34.42
55466;BME280;41329;41.594;23.810;2022-07-18T08:56:41;95791.34;;;26.31;33.61
55466;BME280;41329;41.594;23.810;2022-07-18T08:59:07;95786.47;;;26.32;34.51
55466;BME280;41329;41.594;23.810;2022-07-18T09:01:32;95792.47;;;26.34;34.54
55466;BME280;41329;41.594;23.810;2022-07-18T09:03:58;95776.72;;;26.33;34.10
55466;BME280;41329;41.594;23.810;2022-07-18T09:06:49;95770.69;;;26.31;33.77
55466;BME280;41329;41.594;23.810;2022-07-18T09:09:17;95779.16;;;26.22;33.40
55466;BME280;41329;41.594;23.810;2022-07-18T09:11:56;95777.09;;;26.22;32.88
55466;BME280;41329;41.594;23.810;2022-07-18T09:17:05;95768.41;;;26.38;35.65
55466;BME280;41329;41.594;23.810;2022-07-18T09:19:31;95786.28;;;26.78;37.15
55466;BME280;41329;41.594;23.810;2022-07-18T09:22:12;95777.19;;;26.92;32.77
55466;BME280;41329;41.594;23.810;2022-07-18T09:24:59;95768.59;;;26.74;33.21
55466;BME280;41329;41.594;23.810;2022-07-18T09:27:25;95776.13;;;26.99;33.11
55466;BME280;41329;41.594;23.810;2022-07-18T09:30:18;95775.19;;;27.02;32.57
55466;BME280;41329;41.594;23.810;2022-07-18T09:33:14;95774.09;;;27.08;31.67
55466;BME280;41329;41.594;23.810;2022-07-18T09:35:52;95771.91;;;27.12;32.31
55466;BME280;41329;41.594;23.810;2022-07-18T09:38:29;95775.06;;;27.05;32.52
55466;BME280;41329;41.594;23.810;2022-07-18T09:40:54;95752.47;;;27.02;31.86
55466;BME280;41329;41.594;23.810;2022-07-18T09:43:23;95772.44;;;27.20;31.54
55466;BME280;41329;41.594;23.810;2022-07-18T09:45:54;95766.81;;;27.47;31.99
55466;BME280;41329;41.594;23.810;2022-07-18T09:48:25;95754.97;;;27.48;29.86
55466;BME280;41329;41.594;23.810;2022-07-18T09:51:01;95756.56;;;27.67;30.23
55466;BME280;41329;41.594;23.810;2022-07-18T09:53:34;95763.06;;;27.77;31.27
55466;BME280;41329;41.594;23.810;2022-07-18T09:58:35;95764.03;;;28.10;29.48
55466;BME280;41329;41.594;23.810;2022-07-18T10:01:03;95755.81;;;28.12;30.14
55466;BME280;41329;41.594;23.810;2022-07-18T10:03:29;95751.53;;;28.26;29.75
55466;BME280;41329;41.594;23.810;2022-07-18T10:05:57;95746.66;;;28.17;29.26
55466;BME280;41329;41.594;23.810;2022-07-18T10:08:25;95760.19;;;28.49;29.97
55466;BME280;41329;41.594;23.810;2022-07-18T10:10:53;95716.56;;;28.43;29.04
55466;BME280;41329;41.594;23.810;2022-07-18T10:13:20;95757.03;;;28.98;30.30
55466;BME280;41329;41.594;23.810;2022-07-18T10:15:47;95711.72;;;28.76;27.81
55466;BME280;41329;41.594;23.810;2022-07-18T10:18:15;95753.47;;;28.79;26.19
55466;BME280;41329;41.594;23.810;2022-07-18T10:21:04;95749.28;;;28.57;26.38
55466;BME280;41329;41.594;23.810;2022-07-18T10:23:35;95749.13;;;28.33;26.41
55466;BME280;41329;41.594;23.810;2022-07-18T10:26:23;95738.88;;;28.45;27.37
55466;BME280;41329;41.594;23.810;2022-07-18T10:32:00;95746.75;;;28.59;26.88
55466;BME280;41329;41.594;23.810;2022-07-18T10:34:32;95726.50;;;28.39;28.15
55466;BME280;41329;41.594;23.810;2022-07-18T10:39:36;95737.00;;;28.83;29.15
55466;BME280;41329;41.594;23.810;2022-07-18T11:00:06;95726.81;;;29.33;25.44
55466;BME280;41329;41.594;23.810;2022-07-18T11:02:46;95711.94;;;29.52;25.98
55466;BME280;41329;41.594;23.810;2022-07-18T11:16:07;95704.84;;;29.48;26.60
55466;BME280;41329;41.594;23.810;2022-07-18T11:21:27;95698.72;;;29.64;25.43
55466;BME280;41329;41.594;23.810;2022-07-18T11:24:02;95690.91;;;29.50;24.18
55466;BME280;41329;41.594;23.810;2022-07-18T11:26:29;95696.28;;;29.71;24.78
55466;BME280;41329;41.594;23.810;2022-07-18T11:31:25;95698.97;;;29.75;25.65
55466;BME280;41329;41.594;23.810;2022-07-18T11:33:51;95699.00;;;29.89;25.81
55466;BME280;41329;41.594;23.810;2022-07-18T11:36:22;95705.56;;;29.81;25.73
55466;BME280;41329;41.594;23.810;2022-07-18T11:38:56;95696.66;;;30.02;25.70
55466;BME280;41329;41.594;23.810;2022-07-18T11:41:22;95697.34;;;29.97;24.47
55466;BME280;41329;41.594;23.810;2022-07-18T11:43:50;95697.53;;;30.08;25.23
55466;BME280;41329;41.594;23.810;2022-07-18T11:46:18;95695.50;;;30.09;25.36
55466;BME280;41329;41.594;23.810;2022-07-18T11:48:46;95691.50;;;30.15;24.53
55466;BME280;41329;41.594;23.810;2022-07-18T11:51:18;95682.13;;;30.15;24.16
55466;BME280;41329;41.594;23.810;2022-07-18T11:53:48;95680.72;;;30.10;25.60
55466;BME280;41329;41.594;23.810;2022-07-18T11:56:14;95678.31;;;30.18;25.06
55466;BME280;41329;41.594;23.810;2022-07-18T11:58:42;95658.53;;;30.14;23.89
55466;BME280;41329;41.594;23.810;2022-07-18T12:01:07;95663.50;;;30.05;24.33
55466;BME280;41329;41.594;23.810;2022-07-18T12:03:39;95659.78;;;30.13;23.77
55466;BME280;41329;41.594;23.810;2022-07-18T12:06:19;95662.22;;;30.06;24.75
55466;BME280;41329;41.594;23.810;2022-07-18T12:08:51;95661.03;;;29.98;23.72
55466;BME280;41329;41.594;23.810;2022-07-18T12:11:27;95668.34;;;30.13;25.32
55466;BME280;41329;41.594;23.810;2022-07-18T12:16:26;95616.38;;;30.24;23.49
55466;BME280;41329;41.594;23.810;2022-07-18T12:24:40;95654.06;;;30.57;22.96
55466;BME280;41329;41.594;23.810;2022-07-18T12:27:41;95649.91;;;30.58;23.38
55466;BME280;41329;41.594;23.810;2022-07-18T12:30:09;95623.31;;;30.66;26.19
55466;BME280;41329;41.594;23.810;2022-07-18T12:32:46;95608.81;;;30.84;22.90
55466;BME280;41329;41.594;23.810;2022-07-18T12:35:16;95647.72;;;30.82;23.55
55466;BME280;41329;41.594;23.810;2022-07-18T12:37:50;95657.81;;;30.63;23.89
55466;BME280;41329;41.594;23.810;2022-07-18T12:40:15;95636.63;;;30.55;24.18
55466;BME280;41329;41.594;23.810;2022-07-18T12:42:41;95642.59;;;30.86;23.22
55466;BME280;41329;41.594;23.810;2022-07-18T12:45:11;95646.88;;;30.76;24.18
55466;BME280;41329;41.594;23.810;2022-07-18T12:47:37;95646.03;;;30.90;23.40
55466;BME280;41329;41.594;23.810;2022-07-18T12:50:05;95639.84;;;30.91;22.71
55466;BME280;41329;41.594;23.810;2022-07-18T12:52:31;95641.03;;;30.85;23.26
55466;BME280;41329;41.594;23.810;2022-07-18T12:54:57;95640.88;;;31.08;22.58
55466;BME280;41329;41.594;23.810;2022-07-18T12:57:22;95642.16;;;31.07;22.10
55466;BME280;41329;41.594;23.810;2022-07-18T12:59:48;95637.91;;;31.03;22.71
55466;BME280;41329;41.594;23.810;2022-07-18T13:02:15;95633.13;;;31.14;23.62
55466;BME280;41329;41.594;23.810;2022-07-18T13:04:41;95625.41;;;31.00;23.79
55466;BME280;41329;41.594;23.810;2022-07-18T13:07:07;95629.50;;;31.14;22.74
55466;BME280;41329;41.594;23.810;2022-07-18T13:09:32;95629.06;;;31.21;23.37
55466;BME280;41329;41.594;23.810;2022-07-18T13:11:59;95625.09;;;31.33;22.93
55466;BME280;41329;41.594;23.810;2022-07-18T13:14:25;95633.09;;;31.29;21.67
55466;BME280;41329;41.594;23.810;2022-07-18T13:16:52;95626.97;;;31.36;22.15
55466;BME280;41329;41.594;23.810;2022-07-18T13:19:18;95629.56;;;31.34;21.76
55466;BME280;41329;41.594;23.810;2022-07-18T13:21:44;95629.06;;;31.01;21.03
55466;BME280;41329;41.594;23.810;2022-07-18T13:24:10;95625.06;;;30.93;21.25
55466;BME280;41329;41.594;23.810;2022-07-18T13:26:36;95632.19;;;31.03;22.39
55466;BME280;41329;41.594;23.810;2022-07-18T13:29:03;95607.72;;;31.16;22.27
55466;BME280;41329;41.594;23.810;2022-07-18T13:31:30;95611.09;;;31.35;22.64
55466;BME280;41329;41.594;23.810;2022-07-18T13:33:55;95613.22;;;31.60;22.06
55466;BME280;41329;41.594;23.810;2022-07-18T13:36:21;95619.47;;;31.38;21.03
55466;BME280;41329;41.594;23.810;2022-07-18T13:38:47;95616.09;;;31.40;20.85
55466;BME280;41329;41.594;23.810;2022-07-18T13:41:12;95616.03;;;31.54;21.77
55466;BME280;41329;41.594;23.810;2022-07-18T13:43:39;95584.50;;;31.09;22.23